createdAt,value
2022-11-13T00:01:44.737Z,24.80
2022-11-13T00:04:12.570Z,24.97
2022-11-13T00:06:39.609Z,26.20
2022-11-13T00:09:06.632Z,27.63
2022-11-13T00:11:33.626Z,26.13
2022-11-13T00:14:00.621Z,26.43
2022-11-13T00:16:27.580Z,27.07
2022-11-13T00:18:54.567Z,25.30
2022-11-13T00:21:23.050Z,25.97
2022-11-13T00:23:50.456Z,25.90
2022-11-13T00:26:18.753Z,24.00
2022-11-13T00:28:46.207Z,24.63
2022-11-13T00:31:14.865Z,24.37
2022-11-13T00:36:29.218Z,20.70
2022-11-13T00:38:56.800Z,19.27
2022-11-13T00:41:24.203Z,22.27
2022-11-13T00:43:51.439Z,22.03
2022-11-13T00:46:18.439Z,22.03
2022-11-13T00:48:45.404Z,21.17
2022-11-13T00:51:12.460Z,20.57
2022-11-13T00:53:39.458Z,20.60
2022-11-13T00:56:06.522Z,21.10
2022-11-13T00:58:33.500Z,23.47
2022-11-13T01:01:05.785Z,21.97
2022-11-13T01:03:32.839Z,21.13
2022-11-13T01:06:00.472Z,21.47
2022-11-13T01:08:27.895Z,21.97
2022-11-13T01:10:55.144Z,21.90
2022-11-13T01:13:22.161Z,23.83
2022-11-13T01:15:49.135Z,21.97
2022-11-13T01:18:16.153Z,22.73
2022-11-13T01:20:43.137Z,23.10
2022-11-13T01:23:10.254Z,22.33
2022-11-13T01:25:37.270Z,21.00
2022-11-13T01:28:04.382Z,23.67
2022-11-13T01:30:31.364Z,21.67
2022-11-13T01:32:58.356Z,23.87
2022-11-13T01:35:25.378Z,22.83
2022-11-13T01:37:52.371Z,24.93
2022-11-13T01:40:19.394Z,25.87
2022-11-13T01:42:46.438Z,23.13
2022-11-13T01:45:32.038Z,26.23
2022-11-13T01:47:59.565Z,24.93
2022-11-13T01:50:26.921Z,25.30
2022-11-13T01:52:53.903Z,26.27
2022-11-13T01:55:20.925Z,27.00
2022-11-13T01:57:47.992Z,24.50
2022-11-13T02:00:15.154Z,27.70
2022-11-13T02:02:42.146Z,26.03
2022-11-13T02:05:09.487Z,29.90
2022-11-13T02:07:36.485Z,22.37
2022-11-13T02:10:03.539Z,22.70
2022-11-13T02:12:39.880Z,21.17
2022-11-13T02:15:07.974Z,20.50
2022-11-13T02:17:38.067Z,19.77
2022-11-13T02:20:06.113Z,23.47
2022-11-13T02:22:48.968Z,19.90
2022-11-13T02:25:16.620Z,23.47
2022-11-13T02:27:44.833Z,19.27
2022-11-13T02:30:32.064Z,18.63
2022-11-13T02:32:59.741Z,22.57
2022-11-13T02:35:29.883Z,20.10
2022-11-13T02:37:57.544Z,23.13
2022-11-13T02:40:25.105Z,25.43
2022-11-13T02:42:52.099Z,26.27
2022-11-13T02:45:19.116Z,31.35
2022-11-13T02:47:46.094Z,25.37
2022-11-13T02:50:13.194Z,23.60
2022-11-13T02:52:40.192Z,21.17
2022-11-13T02:55:07.398Z,21.47
2022-11-13T02:57:34.369Z,21.43
2022-11-13T03:00:01.352Z,21.93
2022-11-13T03:02:28.341Z,19.93
2022-11-13T03:05:12.583Z,20.20
2022-11-13T03:07:40.232Z,21.60
2022-11-13T03:10:07.821Z,19.93
2022-11-13T03:12:35.095Z,20.03
2022-11-13T03:15:02.283Z,18.93
2022-11-13T03:17:32.219Z,17.43
2022-11-13T03:19:59.494Z,16.53
2022-11-13T03:22:26.883Z,17.03
2022-11-13T03:24:53.860Z,18.73
2022-11-13T03:27:20.891Z,15.67
2022-11-13T03:29:47.944Z,14.80
2022-11-13T03:32:15.024Z,14.43
2022-11-13T03:34:42.783Z,14.70
2022-11-13T03:37:09.799Z,15.73
2022-11-13T03:39:36.824Z,14.77
2022-11-13T03:42:03.784Z,16.03
2022-11-13T03:44:30.764Z,16.30
2022-11-13T03:46:57.791Z,16.27
2022-11-13T03:49:24.820Z,16.53
2022-11-13T03:51:51.789Z,17.33
2022-11-13T03:54:18.800Z,17.30
2022-11-13T03:56:45.781Z,16.80
2022-11-13T03:59:12.772Z,15.77
2022-11-13T04:01:39.822Z,15.83
2022-11-13T04:04:06.876Z,17.35
2022-11-13T04:06:33.850Z,15.30
2022-11-13T04:09:00.836Z,15.17
2022-11-13T04:11:27.810Z,15.57
2022-11-13T04:13:54.787Z,15.33
2022-11-13T04:16:21.757Z,15.33
2022-11-13T04:18:48.724Z,17.73
2022-11-13T04:21:15.685Z,15.13
2022-11-13T04:23:42.741Z,17.23
2022-11-13T04:26:09.695Z,14.23
2022-11-13T04:28:36.687Z,18.87
2022-11-13T04:31:03.697Z,14.50
2022-11-13T04:33:30.683Z,14.87
2022-11-13T04:35:57.687Z,15.87
2022-11-13T04:38:24.727Z,14.83
2022-11-13T04:41:12.154Z,15.80
2022-11-13T04:43:39.136Z,16.27
2022-11-13T04:46:06.106Z,19.17
2022-11-13T04:48:33.122Z,15.87
2022-11-13T04:51:00.093Z,16.87
2022-11-13T04:53:27.194Z,19.50
2022-11-13T04:55:54.178Z,16.53
2022-11-13T04:58:21.152Z,16.47
2022-11-13T05:00:48.130Z,13.07
2022-11-13T05:03:15.139Z,14.27
2022-11-13T05:05:42.171Z,13.47
2022-11-13T05:08:09.139Z,13.53
2022-11-13T05:10:36.141Z,12.17
2022-11-13T05:13:03.129Z,12.57
2022-11-13T05:15:30.128Z,12.17
2022-11-13T05:17:57.120Z,12.67
2022-11-13T05:20:24.113Z,14.20
2022-11-13T05:22:51.115Z,13.77
2022-11-13T05:25:18.079Z,13.33
2022-11-13T05:27:45.050Z,11.73
2022-11-13T05:30:12.113Z,11.57
2022-11-13T05:32:39.085Z,11.00
2022-11-13T05:35:06.110Z,11.57
2022-11-13T05:37:33.080Z,11.43
2022-11-13T05:40:00.079Z,11.83
2022-11-13T05:42:27.037Z,11.33
2022-11-13T05:44:54.028Z,11.27
2022-11-13T05:47:20.993Z,11.80
2022-11-13T05:49:47.983Z,11.80
2022-11-13T05:52:14.949Z,11.90
2022-11-13T05:54:41.930Z,11.00
2022-11-13T05:57:08.899Z,11.83
2022-11-13T05:59:35.908Z,15.07
2022-11-13T06:02:02.986Z,13.07
2022-11-13T06:04:30.011Z,13.87
2022-11-13T06:06:57.043Z,13.13
2022-11-13T06:09:24.063Z,14.37
2022-11-13T06:11:51.028Z,12.97
2022-11-13T06:14:18.064Z,13.23
2022-11-13T06:16:45.030Z,12.23
2022-11-13T06:19:12.352Z,13.30
2022-11-13T06:21:40.096Z,14.67
2022-11-13T06:24:07.784Z,14.20
2022-11-13T06:26:35.551Z,13.50
2022-11-13T06:29:03.173Z,12.43
2022-11-13T06:31:31.678Z,15.20
2022-11-13T06:33:59.336Z,17.88
2022-11-13T06:36:28.251Z,12.83
2022-11-13T06:38:55.251Z,11.07
2022-11-13T06:41:26.542Z,11.93
2022-11-13T06:43:54.400Z,12.67
2022-11-13T06:46:23.970Z,12.50
2022-11-13T06:48:51.416Z,11.77
2022-11-13T06:51:19.530Z,12.77
2022-11-13T06:53:46.808Z,15.53
2022-11-13T06:56:13.994Z,13.97
2022-11-13T06:58:41.191Z,13.23
2022-11-13T07:01:19.148Z,12.50
2022-11-13T07:03:46.327Z,12.63
2022-11-13T07:06:15.418Z,11.97
2022-11-13T07:08:43.154Z,10.00
2022-11-13T07:11:14.446Z,11.57
2022-11-13T07:13:42.219Z,11.70
2022-11-13T07:16:16.989Z,12.70
2022-11-13T07:18:45.191Z,12.33
2022-11-13T07:21:13.425Z,12.47
2022-11-13T07:23:43.107Z,11.43
2022-11-13T07:26:13.236Z,12.30
2022-11-13T07:28:40.269Z,11.17
2022-11-13T07:31:07.290Z,11.43
2022-11-13T07:33:34.420Z,10.40
2022-11-13T07:36:01.654Z,11.63
2022-11-13T07:38:28.984Z,11.30
2022-11-13T07:40:58.692Z,12.77
2022-11-13T07:43:25.885Z,11.87
2022-11-13T07:45:54.812Z,11.37
2022-11-13T07:48:22.605Z,11.63
2022-11-13T07:50:49.588Z,11.47
2022-11-13T07:53:17.050Z,10.77
2022-11-13T07:55:44.054Z,11.47
2022-11-13T07:58:11.338Z,12.10
2022-11-13T08:00:38.426Z,12.53
2022-11-13T08:03:06.703Z,12.77
2022-11-13T08:05:33.773Z,13.07
2022-11-13T08:08:00.775Z,13.53
2022-11-13T08:10:28.183Z,14.63
2022-11-13T08:13:00.337Z,12.47
2022-11-13T08:15:27.560Z,12.20
2022-11-13T08:17:55.247Z,11.27
2022-11-13T08:20:22.510Z,10.67
2022-11-13T08:22:49.553Z,10.73
2022-11-13T08:25:16.580Z,10.23
2022-11-13T08:27:43.571Z,10.50
2022-11-13T08:30:10.838Z,13.30
2022-11-13T08:32:37.801Z,13.93
2022-11-13T08:35:04.929Z,12.47
2022-11-13T08:37:33.278Z,11.20
2022-11-13T08:40:00.272Z,11.37
2022-11-13T08:42:27.526Z,10.03
2022-11-13T08:44:54.514Z,10.30
2022-11-13T08:47:24.451Z,10.03
2022-11-13T08:49:58.394Z,10.23
2022-11-13T08:52:25.377Z,10.07
2022-11-13T08:54:52.360Z,10.50
2022-11-13T08:57:19.328Z,9.80
2022-11-13T08:59:46.318Z,9.80
2022-11-13T09:02:16.356Z,9.07
2022-11-13T09:04:43.349Z,13.07
2022-11-13T09:07:11.440Z,11.50
2022-11-13T09:09:38.861Z,11.80
2022-11-13T09:12:05.973Z,10.83
2022-11-13T09:14:33.030Z,10.47
2022-11-13T09:17:00.045Z,10.00
2022-11-13T09:19:27.930Z,9.77
2022-11-13T09:21:54.948Z,9.77
2022-11-13T09:24:22.019Z,9.30
2022-11-13T09:26:48.986Z,8.53
2022-11-13T09:29:15.995Z,8.30
2022-11-13T09:31:43.074Z,8.67
2022-11-13T09:34:10.256Z,9.67
2022-11-13T09:36:37.315Z,9.40
2022-11-13T09:39:07.541Z,8.77
2022-11-13T09:41:47.046Z,9.60
2022-11-13T09:44:16.849Z,11.70
2022-11-13T09:46:49.894Z,9.27
2022-11-13T09:49:18.421Z,9.53
2022-11-13T09:51:50.242Z,9.43
2022-11-13T09:54:17.473Z,10.00
2022-11-13T09:56:47.249Z,9.40
2022-11-13T09:59:19.957Z,9.77
2022-11-13T10:01:54.450Z,10.67
2022-11-13T10:04:34.050Z,10.50
2022-11-13T10:07:13.486Z,9.43
2022-11-13T10:09:40.507Z,10.53
2022-11-13T10:12:08.468Z,11.07
2022-11-13T10:14:35.523Z,12.23
2022-11-13T10:17:07.601Z,11.70
2022-11-13T10:19:34.613Z,12.17
2022-11-13T10:22:31.637Z,12.50
2022-11-13T10:24:59.149Z,14.60
2022-11-13T10:27:26.160Z,13.20
2022-11-13T10:29:53.327Z,12.60
2022-11-13T10:32:26.769Z,12.00
2022-11-13T10:35:05.899Z,12.10
2022-11-13T10:37:51.679Z,13.90
2022-11-13T10:40:26.085Z,13.37
2022-11-13T10:42:53.353Z,13.27
2022-11-13T10:45:21.302Z,13.57
2022-11-13T10:48:03.603Z,12.17
2022-11-13T10:50:31.869Z,12.40
2022-11-13T10:52:59.068Z,12.10
2022-11-13T10:55:36.459Z,12.83
2022-11-13T10:58:05.059Z,13.47
2022-11-13T11:00:33.507Z,14.20
2022-11-13T11:03:00.580Z,13.03
2022-11-13T11:05:27.991Z,13.90
2022-11-13T11:07:56.334Z,11.83
2022-11-13T11:10:23.382Z,10.37
2022-11-13T11:13:23.151Z,9.70
2022-11-13T11:15:54.684Z,8.73
2022-11-13T11:18:21.641Z,10.70
2022-11-13T11:20:50.844Z,9.90
2022-11-13T11:23:24.058Z,11.30
2022-11-13T11:26:11.303Z,12.20
2022-11-13T11:28:49.927Z,12.37
2022-11-13T11:31:24.175Z,12.40
2022-11-13T11:33:53.357Z,11.30
2022-11-13T11:36:20.310Z,10.60
2022-11-13T11:38:56.407Z,10.77
2022-11-13T11:41:26.875Z,9.40
2022-11-13T11:44:03.383Z,9.73
2022-11-13T11:46:31.088Z,10.30
2022-11-13T11:49:00.545Z,10.93
2022-11-13T11:51:31.855Z,10.33
2022-11-13T11:54:04.930Z,9.90
2022-11-13T11:56:31.875Z,9.30
2022-11-13T11:59:10.294Z,10.10
2022-11-13T12:01:40.345Z,9.27
2022-11-13T12:04:14.437Z,8.87
2022-11-13T12:06:50.597Z,8.80
2022-11-13T12:09:17.581Z,7.87
2022-11-13T12:11:51.653Z,8.87
2022-11-13T12:14:40.842Z,8.83
2022-11-13T12:17:22.526Z,8.63
2022-11-13T12:19:52.526Z,9.50
2022-11-13T12:22:30.836Z,8.87
2022-11-13T12:25:00.920Z,9.37
2022-11-13T12:27:36.670Z,9.60
2022-11-13T12:30:14.779Z,9.00
2022-11-13T12:32:50.779Z,9.20
2022-11-13T12:35:19.850Z,9.03
2022-11-13T12:37:55.559Z,8.97
2022-11-13T12:40:31.802Z,9.00
2022-11-13T12:43:17.511Z,9.93
2022-11-13T12:45:50.706Z,9.17
2022-11-13T12:48:21.054Z,9.17
2022-11-13T12:50:59.133Z,8.17
2022-11-13T12:53:31.016Z,9.20
2022-11-13T12:56:02.352Z,8.07
2022-11-13T12:58:33.406Z,8.87
2022-11-13T13:01:06.558Z,8.93
2022-11-13T13:03:39.774Z,9.07
2022-11-13T13:06:06.815Z,8.37
2022-11-13T13:08:36.546Z,8.83
2022-11-13T13:11:22.369Z,8.07
2022-11-13T13:14:01.608Z,8.60
2022-11-13T13:16:29.902Z,7.90
2022-11-13T13:19:15.750Z,9.00
2022-11-13T13:21:44.207Z,8.60
2022-11-13T13:24:27.764Z,8.53
2022-11-13T13:26:54.753Z,8.43
2022-11-13T13:29:26.158Z,8.17
2022-11-13T13:32:02.437Z,7.63
2022-11-13T13:34:41.225Z,8.82
2022-11-13T13:37:17.562Z,8.40
2022-11-13T13:39:59.625Z,7.97
2022-11-13T13:42:35.687Z,7.90
2022-11-13T13:45:02.616Z,7.70
2022-11-13T13:47:40.124Z,7.80
2022-11-13T13:50:09.526Z,7.73
2022-11-13T13:52:37.232Z,8.30
2022-11-13T13:55:05.285Z,7.90
2022-11-13T13:57:32.359Z,8.20
2022-11-13T13:59:59.445Z,8.60
2022-11-13T14:02:26.579Z,8.43
2022-11-13T14:04:55.234Z,8.27
2022-11-13T14:07:26.597Z,8.60
2022-11-13T14:10:06.750Z,9.98
2022-11-13T14:12:33.761Z,8.77
2022-11-13T14:15:00.737Z,9.10
2022-11-13T14:17:29.031Z,8.63
2022-11-13T14:20:00.960Z,8.73
2022-11-13T14:22:28.820Z,8.37
2022-11-13T14:24:58.242Z,9.30
2022-11-13T14:27:26.288Z,8.43
2022-11-13T14:29:56.522Z,8.50
2022-11-13T14:32:25.988Z,8.03
2022-11-13T14:34:54.323Z,8.40
2022-11-13T14:37:23.599Z,8.97
2022-11-13T14:39:51.373Z,8.23
2022-11-13T14:42:20.334Z,8.27
2022-11-13T14:44:47.475Z,9.43
2022-11-13T14:47:22.479Z,8.97
2022-11-13T14:49:49.532Z,10.57
2022-11-13T14:52:31.071Z,10.30
2022-11-13T14:55:15.326Z,9.80
2022-11-13T14:57:49.574Z,9.10
2022-11-13T15:00:18.718Z,9.20
2022-11-13T15:02:45.701Z,9.87
2022-11-13T15:05:12.754Z,9.43
2022-11-13T15:07:42.867Z,9.63
2022-11-13T15:10:15.340Z,9.03
2022-11-13T15:12:42.606Z,9.57
2022-11-13T15:15:14.891Z,10.67
2022-11-13T15:17:43.420Z,9.53
2022-11-13T15:20:15.064Z,10.87
2022-11-13T15:22:42.581Z,9.77
2022-11-13T15:25:19.834Z,9.70
2022-11-13T15:27:46.822Z,10.50
2022-11-13T15:30:14.302Z,10.47
2022-11-13T15:32:41.370Z,11.20
2022-11-13T15:35:12.007Z,11.17
2022-11-13T15:37:39.059Z,11.87
2022-11-13T15:40:06.278Z,12.27
2022-11-13T15:42:34.829Z,13.13
2022-11-13T15:45:01.965Z,12.00
2022-11-13T15:47:34.437Z,12.60
2022-11-13T15:50:13.564Z,12.90
2022-11-13T15:52:43.213Z,12.83
2022-11-13T15:55:27.366Z,13.63
2022-11-13T15:57:55.168Z,13.67
2022-11-13T16:00:26.872Z,13.67
2022-11-13T16:02:57.351Z,14.07
2022-11-13T16:05:25.914Z,16.23
2022-11-13T16:07:53.745Z,16.10
2022-11-13T16:10:21.660Z,15.77
2022-11-13T16:12:48.817Z,14.60
2022-11-13T16:15:16.683Z,16.27
2022-11-13T16:17:45.702Z,14.73
2022-11-13T16:20:15.366Z,14.80
2022-11-13T16:22:42.401Z,15.63
2022-11-13T16:25:14.130Z,15.13
2022-11-13T16:27:41.307Z,14.97
2022-11-13T16:30:28.327Z,15.83
2022-11-13T16:32:55.359Z,17.00
2022-11-13T16:35:22.344Z,19.13
2022-11-13T16:37:49.356Z,18.13
2022-11-13T16:40:21.141Z,17.00
2022-11-13T16:42:48.198Z,16.83
2022-11-13T16:45:15.267Z,17.13
2022-11-13T16:47:42.504Z,17.03
2022-11-13T16:50:18.027Z,17.00
2022-11-13T16:52:45.076Z,16.97
2022-11-13T16:55:13.072Z,16.87
2022-11-13T16:57:40.561Z,16.90
2022-11-13T17:00:08.596Z,16.10
2022-11-13T17:02:35.585Z,15.97
2022-11-13T17:05:02.562Z,16.97
2022-11-13T17:07:29.574Z,17.40
2022-11-13T17:10:24.286Z,16.57
2022-11-13T17:12:43.554Z,15.70
2022-11-13T17:15:10.915Z,24.43
2022-11-13T17:17:37.904Z,26.30
2022-11-13T17:20:05.056Z,22.13
2022-11-13T17:22:32.060Z,18.57
2022-11-13T17:24:59.018Z,18.03
2022-11-13T17:27:26.022Z,17.97
2022-11-13T17:29:52.997Z,17.43
2022-11-13T17:32:19.991Z,18.10
2022-11-13T17:34:46.955Z,18.50
2022-11-13T17:37:14.238Z,18.80
2022-11-13T17:39:41.265Z,18.67
2022-11-13T17:42:08.236Z,18.80
2022-11-13T17:44:35.239Z,18.73
2022-11-13T17:47:02.193Z,18.27
2022-11-13T17:49:29.417Z,18.43
2022-11-13T17:51:56.774Z,19.73
2022-11-13T17:54:25.193Z,19.77
2022-11-13T17:56:52.161Z,22.10
2022-11-13T17:59:19.243Z,29.30
2022-11-13T18:01:46.285Z,34.85
2022-11-13T18:04:13.289Z,29.00
2022-11-13T18:06:40.458Z,28.37
2022-11-13T18:09:07.584Z,27.40
2022-11-13T18:11:34.583Z,31.47
2022-11-13T18:14:01.593Z,29.63
2022-11-13T18:16:31.317Z,28.60
2022-11-13T18:18:59.822Z,28.67
2022-11-13T18:21:28.814Z,29.70
2022-11-13T18:23:59.775Z,29.20
2022-11-13T18:26:27.653Z,25.53
2022-11-13T18:28:54.953Z,26.53
2022-11-13T18:31:22.089Z,26.40
2022-11-13T18:33:49.109Z,24.87
2022-11-13T18:36:16.369Z,25.27
2022-11-13T18:38:43.604Z,25.10
2022-11-13T18:41:15.315Z,25.80
2022-11-13T18:43:46.265Z,24.57
2022-11-13T18:46:13.880Z,25.47
2022-11-13T18:48:41.789Z,26.73
2022-11-13T18:51:11.693Z,27.93
2022-11-13T18:53:38.664Z,27.47
2022-11-13T18:56:07.421Z,26.93
2022-11-13T18:58:38.198Z,26.90
2022-11-13T19:01:17.377Z,30.10
2022-11-13T19:04:08.432Z,29.63
2022-11-13T19:06:34.996Z,30.87
2022-11-13T19:09:03.551Z,30.80
2022-11-13T19:11:31.007Z,30.83
2022-11-13T19:13:58.261Z,29.27
2022-11-13T19:16:26.535Z,30.13
2022-11-13T19:18:54.784Z,31.07
2022-11-13T19:21:23.301Z,30.33
2022-11-13T19:23:50.474Z,28.37
2022-11-13T19:26:17.834Z,29.40
2022-11-13T19:28:48.554Z,29.43
2022-11-13T19:31:16.434Z,28.47
2022-11-13T19:33:43.668Z,28.30
2022-11-13T19:36:11.628Z,27.83
2022-11-13T19:38:39.018Z,31.50
2022-11-13T19:41:06.696Z,28.67
2022-11-13T19:43:37.484Z,27.47
2022-11-13T19:46:05.175Z,27.90
2022-11-13T19:48:32.918Z,27.57
2022-11-13T19:51:09.569Z,29.40
2022-11-13T19:53:37.078Z,28.13
2022-11-13T19:56:04.421Z,30.07
2022-11-13T19:58:31.745Z,29.80
2022-11-13T20:00:59.153Z,36.47
2022-11-13T20:03:27.301Z,38.03
2022-11-13T20:05:55.022Z,37.43
2022-11-13T20:08:26.791Z,34.60
2022-11-13T20:10:54.856Z,38.07
2022-11-13T20:13:21.833Z,47.13
2022-11-13T20:15:55.154Z,47.83
2022-11-13T20:18:22.201Z,46.07
2022-11-13T20:20:54.387Z,43.10
2022-11-13T20:23:21.961Z,41.43
2022-11-13T20:25:52.666Z,40.93
2022-11-13T20:28:19.912Z,36.00
2022-11-13T20:30:46.917Z,34.73
2022-11-13T20:33:18.497Z,34.50
2022-11-13T20:35:53.695Z,34.83
2022-11-13T20:38:20.681Z,35.40
2022-11-13T20:40:47.704Z,34.97
2022-11-13T20:43:14.702Z,44.72
2022-11-13T20:45:41.690Z,37.00
2022-11-13T20:48:08.699Z,33.97
2022-11-13T20:50:37.398Z,37.63
2022-11-13T20:53:04.690Z,36.13
2022-11-13T20:55:31.919Z,35.70
2022-11-13T20:57:58.882Z,31.10
2022-11-13T21:00:25.987Z,31.20
2022-11-13T21:02:52.978Z,31.93
2022-11-13T21:05:19.947Z,33.07
2022-11-13T21:07:46.968Z,30.17
2022-11-13T21:10:13.946Z,32.00
2022-11-13T21:12:41.009Z,29.07
2022-11-13T21:15:08.218Z,27.83
2022-11-13T21:17:35.248Z,25.57
2022-11-13T21:20:02.245Z,25.20
2022-11-13T21:22:29.213Z,31.20
2022-11-13T21:24:56.189Z,24.40
2022-11-13T21:27:23.157Z,22.77
2022-11-13T21:29:50.153Z,22.37
2022-11-13T21:32:17.130Z,21.57
2022-11-13T21:34:46.329Z,22.90
2022-11-13T21:37:14.354Z,22.93
2022-11-13T21:39:41.315Z,23.33
2022-11-13T21:42:08.349Z,21.97
2022-11-13T21:44:35.373Z,20.57
2022-11-13T21:47:02.355Z,21.17
2022-11-13T21:49:29.438Z,23.43
2022-11-13T21:51:56.405Z,23.10
2022-11-13T21:54:23.418Z,23.23
2022-11-13T21:56:50.421Z,23.97
2022-11-13T21:59:17.399Z,22.87
2022-11-13T22:01:44.396Z,28.50
2022-11-13T22:04:11.381Z,22.73
2022-11-13T22:06:39.615Z,24.13
2022-11-13T22:09:20.341Z,23.73
2022-11-13T22:11:47.418Z,22.43
2022-11-13T22:14:14.563Z,22.67
2022-11-13T22:16:42.546Z,23.47
2022-11-13T22:19:16.927Z,22.47
2022-11-13T22:21:44.583Z,21.20
2022-11-13T22:24:12.156Z,23.33
2022-11-13T22:26:40.298Z,24.80
2022-11-13T22:29:07.927Z,22.43
2022-11-13T22:31:35.569Z,22.17
2022-11-13T22:34:02.607Z,22.40
2022-11-13T22:36:30.991Z,22.30
2022-11-13T22:38:58.547Z,23.43
2022-11-13T22:41:28.255Z,28.70
2022-11-13T22:43:59.638Z,22.57
2022-11-13T22:46:27.643Z,22.97
2022-11-13T22:48:55.551Z,22.77
2022-11-13T22:51:23.780Z,20.93
2022-11-13T22:53:51.868Z,21.27
2022-11-13T22:56:19.472Z,21.30
2022-11-13T22:58:46.518Z,21.47
2022-11-13T23:01:23.432Z,21.50
2022-11-13T23:03:51.136Z,21.10
2022-11-13T23:06:20.406Z,21.23
2022-11-13T23:08:47.613Z,21.23
2022-11-13T23:11:19.013Z,20.07
2022-11-13T23:13:47.538Z,21.07
2022-11-13T23:16:15.040Z,26.10
2022-11-13T23:18:42.041Z,22.47
2022-11-13T23:21:09.697Z,21.67
2022-11-13T23:23:37.006Z,21.80
2022-11-13T23:26:04.551Z,21.57
2022-11-13T23:28:31.875Z,21.43
2022-11-13T23:30:59.147Z,21.03
2022-11-13T23:33:26.139Z,22.17
2022-11-13T23:35:53.241Z,21.10
2022-11-13T23:38:20.204Z,20.73
2022-11-13T23:40:47.353Z,19.53
2022-11-13T23:43:14.330Z,20.77
2022-11-13T23:45:41.349Z,20.67
2022-11-13T23:48:08.381Z,19.77
2022-11-13T23:50:35.397Z,18.20
2022-11-13T23:53:02.351Z,20.43
2022-11-13T23:55:29.331Z,18.83
2022-11-13T23:57:59.842Z,18.03
